Terminal Aerodrome Forecast
Issued by NWS

Home | Current Version | Previous Version | Graphics & Text | Print | Product List | Glossary On
Versions: 1 2 3 4 5 6 7 8 9 10 11 12 13 14 15 16 17 18 19 20 21 22 23
000
FTUS43 KABR 170521
TAFMBG
TAF
KMBG 170521Z 1706/1806 34011G22KT P6SM BKN200
     FM171400 34004KT P6SM OVC060
     FM172000 35008KT P6SM BKN070
     FM180300 30006KT P6SM BKN120=

USA.gov is the U.S. government's official web portal to all federal, state and local government web resources and services.